当前位置: 首页>>欧美 >>WND-055磁力链 www.处女.xxx 亚洲欧美视频图片小说

WND-055磁力链 www.处女.xxx 亚洲欧美视频图片小说

添加时间:    

若妻の匂い VOL.55
055KUAO 122153Z 20013G27KT 10SM-RA BKN048 OVC055 10/04 A2942 RMK AO2 PK WND 19033/2057 SLP961 P0000 T
055大驱2018年10月30日 - BF-362 53.YRH-055 54.UMD-054 55.MIBD-102 56.SMX-006 57.RTP-060 58.RK-001 59.WND-121 60.SNIS-265 61.MODD-012 62.STCEAD-028 63.RD-384
055型导弹驱逐舰2014年5月1日 - BF-362 53.YRH-055 54.UMD-054 55.MIBD-102 56.SMX-006 57.RTP-060 58.RK-001 59.WND-121 60.SNIS-265 61.MODD-012 62.STCEAD-028 63.RD-384
055型驱逐舰腕表之家(xbiao.com)提供天梭T-Sport系列PRC 200 AUTOMATIC CHRONOGRAPH GENT系列T055.427.11.017.00手表最
台湾评论中国055驱逐舰4天前 - 038-055+0..038-055+0有感興趣的嗎?了解+薇:178,1502,2386。0.38-0.55 038-055+0 送TA礼物 回复 来自Android客户端1楼2019-01-03 12:42
055导弹驱逐舰055 hRgn=UnsafeIntCreateRectRgnIndirect(&Window->Wnd->ClientRect);056 } 057 } 058 059/* 060*Step 3.
055造价1天前 - 沈阳这座城市因为自身的问题,迟迟房价没有涨起来。 我在2014年做房产的时候,充分见证了沈阳房产市场的低谷期,那个阶段沈阳库存量过大,各大开发商都在
预计2020中国海军实力QUFodHRwOi8vYWlrYW5keS5vcmcv6JuQ6JuQ5pW055CG44CR77yI54Ot6Zeo5YiG5Lqr77yJ6LaF5biF5bCP5Y+X6Ieq5pG4Lm1
055驱逐舰最新消息2018年6月29日 - BF-362 53.YRH-055 54.UMD-054 55.MIBD-102 56.SMX-006 57.RTP-060 58.RK-001 59.WND-121 60.SNIS-265 61.MODD-012 62.STCEAD-028 63.RD-384
Infranor Typ:BLS 55/Code:BS055A00310N00 Phoenix FLT-CP-PLUS-3S-350-2882640 heidenhain 511395-03 ST
亚洲图片 欧美图片 伦理电影 日本av伦理 成人小说,全新网站上线,火爆高清内容等你来看,男人都爱上的网站

随机推荐

网站导航 福利地图